Terminal Aerodrome Forecast
Issued by NWS

Home | Current Version | Previous Version | Text Only | Print | Product List | Glossary On
Versions: 1 2 3 4 5 6 7 8 9 10 11 12 13
815
FTUS44 KTSA 131736
TAFRVS
TAF
KRVS 131736Z 1318/1418 08007KT P6SM SCT250
     FM132100 14008KT P6SM FEW250
     FM140300 14010KT P6SM OVC050
     FM141200 15010KT P6SM OVC015
     FM141500 14007KT 4SM -DZ BR OVC007=

USA.gov is the U.S. government's official web portal to all federal, state and local government web resources and services.